createdAt,value
2023-05-02T00:01:07.088Z,95.8778
2023-05-02T00:02:07.750Z,95.8859
2023-05-02T00:03:07.878Z,96.1438
2023-05-02T00:04:08.244Z,96.1546
2023-05-02T00:06:08.786Z,96.2153
2023-05-02T00:10:11.966Z,96.5875
2023-05-02T00:11:12.571Z,96.6759
2023-05-02T00:12:13.206Z,96.7006
2023-05-02T00:14:13.001Z,96.6742
2023-05-02T00:15:14.543Z,96.5651
2023-05-02T00:18:16.146Z,96.6939
2023-05-02T00:19:17.969Z,96.8804
2023-05-02T00:20:18.667Z,96.9936
2023-05-02T00:23:20.368Z,97.2071
2023-05-02T00:24:21.569Z,97.2318
2023-05-02T00:26:22.552Z,97.3017
2023-05-02T00:27:23.255Z,97.2551
2023-05-02T00:28:24.052Z,97.2841
2023-05-02T00:29:24.820Z,97.2909
2023-05-02T00:30:25.774Z,97.2306
2023-05-02T00:31:26.239Z,97.3120
2023-05-02T00:32:26.357Z,97.4531
2023-05-02T00:33:28.176Z,97.5436
2023-05-02T00:34:28.697Z,97.5168
2023-05-02T00:35:29.015Z,97.4880
2023-05-02T00:36:29.556Z,97.4882
2023-05-02T00:37:30.268Z,97.5714
2023-05-02T00:38:30.582Z,97.5401
2023-05-02T00:39:30.651Z,97.2994
2023-05-02T00:40:31.065Z,97.2059
2023-05-02T00:41:33.393Z,97.3272
2023-05-02T00:48:39.331Z,97.0197
2023-05-02T00:49:40.293Z,97.0170
2023-05-02T00:50:41.221Z,96.8940
2023-05-02T00:51:41.487Z,97.1107
2023-05-02T00:52:41.719Z,97.2174
2023-05-02T00:53:43.333Z,97.2072
2023-05-02T00:54:44.444Z,97.3169
2023-05-02T00:55:45.986Z,97.1049
2023-05-02T00:56:46.413Z,96.7825
2023-05-02T00:59:48.502Z,96.8113
2023-05-02T01:00:49.697Z,96.9129
2023-05-02T01:01:50.073Z,96.9490
2023-05-02T01:04:53.426Z,96.9529
2023-05-02T01:05:54.696Z,96.9847
2023-05-02T01:06:55.242Z,97.0671
2023-05-02T01:07:55.453Z,97.0824
2023-05-02T01:08:55.953Z,97.1326
2023-05-02T01:09:57.382Z,97.1603
2023-05-02T01:10:58.428Z,97.1927
2023-05-02T01:11:58.872Z,97.1210
2023-05-02T01:12:58.930Z,97.2082
2023-05-02T01:14:00.051Z,97.1026
2023-05-02T01:15:00.100Z,97.1807
2023-05-02T01:16:00.999Z,97.1996
2023-05-02T01:17:03.263Z,97.3358
2023-05-02T01:18:04.347Z,97.3605
2023-05-02T01:19:04.767Z,97.4709
2023-05-02T01:20:06.136Z,97.4774
2023-05-02T01:23:08.882Z,97.6771
2023-05-02T01:28:10.662Z,97.7876
2023-05-02T01:29:11.026Z,97.7991
2023-05-02T01:30:12.871Z,97.8676
2023-05-02T01:32:12.885Z,98.0206
2023-05-02T01:33:14.594Z,98.1768
2023-05-02T01:34:15.209Z,98.1634
2023-05-02T01:35:15.437Z,98.1605
2023-05-02T01:36:16.771Z,98.2064
2023-05-02T01:37:17.601Z,98.3661
2023-05-02T01:38:18.600Z,98.4013
2023-05-02T01:39:19.665Z,98.4354
2023-05-02T01:40:20.752Z,98.4366
2023-05-02T01:41:21.058Z,98.5020
2023-05-02T01:42:23.054Z,98.4502
2023-05-02T01:43:24.116Z,98.5301
2023-05-02T01:44:25.458Z,98.4850
2023-05-02T01:53:40.722Z,98.1059
2023-05-02T01:54:40.725Z,98.1614
2023-05-02T01:55:42.320Z,98.1539
2023-05-02T01:56:43.009Z,98.2054
2023-05-02T01:57:43.003Z,98.2394
2023-05-02T01:58:43.858Z,98.2061
2023-05-02T01:59:45.305Z,98.2351
2023-05-02T02:00:46.724Z,98.2354
2023-05-02T02:01:47.097Z,98.2976
2023-05-02T02:09:58.669Z,98.6423
2023-05-02T02:10:59.668Z,98.6262
2023-05-02T02:12:01.098Z,98.6244
2023-05-02T02:13:02.648Z,98.5076
2023-05-02T02:16:05.020Z,98.6086
2023-05-02T02:17:05.446Z,98.7040
2023-05-02T02:18:05.500Z,98.7600
2023-05-02T02:19:06.204Z,98.7746
2023-05-02T02:20:06.965Z,98.7944
2023-05-02T02:21:07.532Z,98.8596
2023-05-02T02:22:08.128Z,98.8488
2023-05-02T02:23:08.715Z,98.7060
2023-05-02T02:24:09.335Z,98.3625
2023-05-02T02:25:09.831Z,98.2192
2023-05-02T02:26:10.436Z,98.0450
2023-05-02T02:27:10.981Z,98.0010
2023-05-02T02:28:11.444Z,97.9643
2023-05-02T02:29:11.952Z,97.9332
2023-05-02T02:30:12.457Z,97.8608
2023-05-02T02:31:13.349Z,97.8189
2023-05-02T02:32:14.153Z,97.8589
2023-05-02T02:33:14.903Z,97.8700
2023-05-02T02:34:15.631Z,97.8366
2023-05-02T02:35:16.209Z,97.8466
2023-05-02T02:36:16.631Z,97.7207
2023-05-02T02:37:17.357Z,97.6533
2023-05-02T02:38:17.980Z,97.6748
2023-05-02T02:39:18.464Z,97.5787
2023-05-02T02:40:19.156Z,97.5133
2023-05-02T02:41:19.584Z,97.4413
2023-05-02T02:42:20.172Z,97.3607
2023-05-02T02:43:20.780Z,97.2933
2023-05-02T02:44:20.845Z,97.1976
2023-05-02T02:45:22.391Z,97.1143
2023-05-02T02:47:23.304Z,97.0560
2023-05-02T02:48:23.652Z,96.8594
2023-05-02T02:49:24.200Z,96.8660
2023-05-02T02:50:24.518Z,96.8110
2023-05-02T02:51:25.107Z,96.6846
2023-05-02T02:52:25.443Z,96.5999
2023-05-02T02:53:25.558Z,96.5534
2023-05-02T02:54:30.136Z,96.5362
2023-05-02T02:55:30.545Z,96.6398
2023-05-02T02:56:30.925Z,96.3111
2023-05-02T02:57:31.417Z,96.4001
2023-05-02T02:58:31.922Z,96.4837
2023-05-02T02:59:32.215Z,96.5730
2023-05-02T03:00:32.633Z,96.6292
2023-05-02T03:01:33.231Z,96.4939
2023-05-02T03:02:33.768Z,96.3266
2023-05-02T03:03:35.018Z,96.4617
2023-05-02T03:04:35.653Z,96.5123
2023-05-02T03:05:36.197Z,96.3370
2023-05-02T03:06:37.030Z,96.3333
2023-05-02T03:07:37.739Z,96.2012
2023-05-02T03:08:38.277Z,96.1591
2023-05-02T03:09:38.801Z,96.0869
2023-05-02T03:10:39.112Z,95.9537
2023-05-02T03:11:39.611Z,95.9241
2023-05-02T03:12:40.448Z,95.8436
2023-05-02T03:13:41.335Z,95.7009
2023-05-02T03:14:42.106Z,95.7630
2023-05-02T03:15:42.537Z,95.7884
2023-05-02T03:16:43.512Z,95.7637
2023-05-02T03:17:44.331Z,95.0605
2023-05-02T03:18:45.964Z,94.6527
2023-05-02T03:19:46.263Z,94.8301
2023-05-02T03:20:46.850Z,95.0005
2023-05-02T03:21:47.592Z,95.2113
2023-05-02T03:22:48.559Z,95.2720
2023-05-02T03:23:49.089Z,95.5067
2023-05-02T03:24:49.609Z,95.3513
2023-05-02T03:25:51.466Z,95.4564
2023-05-02T03:27:51.123Z,95.7826
2023-05-02T03:28:51.695Z,95.8980
2023-05-02T03:29:52.194Z,95.9912
2023-05-02T03:30:52.463Z,95.9879
2023-05-02T03:31:53.252Z,95.9837
2023-05-02T03:32:54.439Z,95.6958
2023-05-02T03:33:55.195Z,95.7781
2023-05-02T03:34:55.690Z,95.9234
2023-05-02T03:35:56.140Z,95.6660
2023-05-02T03:36:56.640Z,95.3101
2023-05-02T03:37:57.158Z,95.0653
2023-05-02T03:38:57.523Z,95.1160
2023-05-02T03:39:58.216Z,95.0356
2023-05-02T03:40:58.253Z,95.1717
2023-05-02T03:41:58.707Z,94.9732
2023-05-02T03:42:59.150Z,95.0103
2023-05-02T03:43:59.566Z,94.8959
2023-05-02T03:45:00.210Z,94.4439
2023-05-02T03:46:01.380Z,94.6753
2023-05-02T03:47:02.243Z,95.0943
2023-05-02T03:48:03.352Z,95.0204
2023-05-02T03:49:04.032Z,95.1223
2023-05-02T03:50:04.377Z,94.5680
2023-05-02T03:51:04.930Z,94.5817
2023-05-02T03:52:05.598Z,94.9792
2023-05-02T03:53:06.814Z,95.1637
2023-05-02T03:54:07.365Z,95.2656
2023-05-02T03:55:08.033Z,95.2959
2023-05-02T03:56:08.390Z,95.4878
2023-05-02T03:57:09.167Z,95.4230
2023-05-02T03:58:09.568Z,94.8835
2023-05-02T03:59:10.396Z,95.0768
2023-05-02T04:00:11.302Z,94.9009
2023-05-02T04:01:11.843Z,95.1907
2023-05-02T04:02:12.370Z,95.2736
2023-05-02T04:03:12.573Z,95.1741
2023-05-02T04:04:13.349Z,95.4773
2023-05-02T04:05:13.825Z,95.6232
2023-05-02T04:06:14.955Z,95.5030
2023-05-02T04:07:15.484Z,95.4852
2023-05-02T04:08:16.014Z,95.3307
2023-05-02T04:09:16.684Z,95.2921
2023-05-02T04:10:17.772Z,95.4409
2023-05-02T04:11:18.410Z,95.4288
2023-05-02T04:12:18.945Z,95.4484
2023-05-02T04:13:19.293Z,95.2341
2023-05-02T04:14:20.025Z,95.3709
2023-05-02T04:15:20.440Z,95.4790
2023-05-02T04:16:21.228Z,95.5153
2023-05-02T04:17:21.301Z,95.6352
2023-05-02T04:18:22.139Z,95.6146
2023-05-02T04:19:22.699Z,95.5532
2023-05-02T04:20:23.225Z,95.3765
2023-05-02T04:21:23.785Z,95.1663
2023-05-02T04:22:24.430Z,95.2957
2023-05-02T04:23:24.690Z,95.3851
2023-05-02T04:24:25.289Z,95.7042
2023-05-02T04:25:25.726Z,95.6466
2023-05-02T04:26:26.216Z,95.6294
2023-05-02T04:27:26.367Z,95.4854
2023-05-02T04:28:26.884Z,95.5586
2023-05-02T04:29:27.525Z,95.3483
2023-05-02T04:30:28.464Z,95.4626
2023-05-02T04:31:29.119Z,95.5767
2023-05-02T04:32:29.922Z,95.3603
2023-05-02T04:33:30.813Z,95.3662
2023-05-02T04:34:31.210Z,95.5508
2023-05-02T04:35:31.888Z,95.6061
2023-05-02T04:36:32.391Z,95.7107
2023-05-02T04:37:32.600Z,96.0691
2023-05-02T04:38:33.145Z,96.3566
2023-05-02T04:39:33.626Z,96.3118
2023-05-02T04:40:34.134Z,96.3666
2023-05-02T04:41:34.844Z,96.4341
2023-05-02T04:42:35.237Z,96.4534
2023-05-02T04:43:35.671Z,96.3994
2023-05-02T04:44:36.511Z,96.4819
2023-05-02T04:45:37.186Z,96.5318
2023-05-02T04:46:38.313Z,96.6429
2023-05-02T04:47:38.949Z,96.6393
2023-05-02T04:48:39.908Z,96.6137
2023-05-02T04:49:40.877Z,96.5765
2023-05-02T04:50:42.156Z,96.6386
2023-05-02T04:51:42.968Z,96.6053
2023-05-02T04:52:43.576Z,96.7737
2023-05-02T04:53:43.920Z,96.7403
2023-05-02T04:54:44.591Z,96.8302
2023-05-02T04:55:44.948Z,96.7698
2023-05-02T04:56:45.565Z,96.8678
2023-05-02T04:57:46.820Z,96.9858
2023-05-02T04:58:47.317Z,96.8309
2023-05-02T04:59:47.971Z,96.7784
2023-05-02T05:00:48.571Z,96.8839
2023-05-02T05:01:49.336Z,96.8940
2023-05-02T05:02:50.978Z,97.1761
2023-05-02T05:03:51.075Z,97.4338
2023-05-02T05:04:51.679Z,97.3701
2023-05-02T05:05:51.952Z,97.3409
2023-05-02T05:06:53.125Z,97.3543
2023-05-02T05:07:53.816Z,97.2732
2023-05-02T05:08:54.482Z,97.4462
2023-05-02T05:09:55.980Z,97.3112
2023-05-02T05:10:57.005Z,97.4537
2023-05-02T05:11:57.691Z,97.5163
2023-05-02T05:12:58.149Z,97.6026
2023-05-02T05:13:58.874Z,97.6422
2023-05-02T05:14:59.354Z,97.4271
2023-05-02T05:16:00.255Z,97.3305
2023-05-02T05:17:00.423Z,97.0176
2023-05-02T05:18:01.003Z,96.7332
2023-05-02T05:19:01.340Z,96.6204
2023-05-02T05:20:02.276Z,96.4674
2023-05-02T05:21:02.857Z,96.4489
2023-05-02T05:23:04.324Z,96.2638
2023-05-02T05:24:04.822Z,96.0805
2023-05-02T05:25:05.699Z,95.7532
2023-05-02T05:26:06.544Z,95.5729
2023-05-02T05:27:07.396Z,95.6532
2023-05-02T05:28:08.083Z,95.7122
2023-05-02T05:29:08.776Z,95.6086
2023-05-02T05:30:09.729Z,95.7129
2023-05-02T05:31:10.599Z,95.5327
2023-05-02T05:32:11.668Z,95.2666
2023-05-02T05:33:12.393Z,95.1538
2023-05-02T05:34:12.814Z,95.0958
2023-05-02T05:35:13.551Z,94.7831
2023-05-02T05:36:14.774Z,94.7523
2023-05-02T05:37:15.363Z,94.5825
2023-05-02T05:38:15.907Z,94.4178
2023-05-02T05:39:16.665Z,94.1666
2023-05-02T05:40:17.581Z,93.9224
2023-05-02T05:41:18.292Z,94.0870
2023-05-02T05:42:19.053Z,94.0778
2023-05-02T05:43:20.089Z,93.8480
2023-05-02T05:44:20.576Z,93.7159
2023-05-02T05:45:21.507Z,93.4912
2023-05-02T05:46:23.146Z,93.4880
2023-05-02T05:47:24.179Z,93.4814
2023-05-02T05:48:25.318Z,93.5018
2023-05-02T05:49:26.124Z,93.4971
2023-05-02T05:50:26.754Z,93.5699
2023-05-02T05:51:27.699Z,93.6017
2023-05-02T05:52:28.406Z,93.5882
2023-05-02T05:53:29.437Z,93.6957
2023-05-02T05:54:30.369Z,93.5684
2023-05-02T05:55:31.087Z,93.6158
2023-05-02T05:56:31.939Z,93.5602
2023-05-02T05:57:32.654Z,93.3370
2023-05-02T05:58:33.381Z,93.3066
2023-05-02T05:59:34.355Z,93.2878
2023-05-02T06:00:35.794Z,93.5920
2023-05-02T06:01:36.605Z,92.7158
2023-05-02T06:02:36.757Z,92.7240
2023-05-02T06:03:37.296Z,92.8738
2023-05-02T06:04:37.576Z,92.8914
2023-05-02T06:05:38.139Z,92.1671
2023-05-02T06:06:39.065Z,91.9171
2023-05-02T06:07:39.947Z,91.9391
2023-05-02T06:08:40.459Z,92.2354
2023-05-02T06:09:41.297Z,92.2228
2023-05-02T06:10:42.549Z,92.3503
2023-05-02T06:11:43.163Z,92.2938
2023-05-02T06:12:45.209Z,91.7142
2023-05-02T06:13:45.256Z,91.3390
2023-05-02T06:14:45.698Z,90.9663
2023-05-02T06:15:46.295Z,90.9917
2023-05-02T06:16:47.197Z,91.3753
2023-05-02T06:17:48.071Z,91.2821
2023-05-02T06:18:48.926Z,92.5037
2023-05-02T06:19:49.497Z,91.9020
2023-05-02T06:20:49.867Z,91.2344
2023-05-02T06:21:50.683Z,91.1881
2023-05-02T06:22:51.127Z,91.4098
2023-05-02T06:23:51.946Z,91.5639
2023-05-02T06:24:52.526Z,91.4411
2023-05-02T06:25:53.033Z,91.4770
2023-05-02T06:26:53.743Z,91.6197
2023-05-02T06:27:54.297Z,91.1128
2023-05-02T06:28:54.896Z,90.9782
2023-05-02T06:29:55.670Z,92.0531
2023-05-02T06:30:56.111Z,92.5757
2023-05-02T06:31:57.171Z,91.7443
2023-05-02T06:32:57.998Z,92.3079
2023-05-02T06:33:58.762Z,93.1718
2023-05-02T06:34:59.503Z,92.7939
2023-05-02T06:36:01.834Z,92.7710
2023-05-02T06:37:00.392Z,92.5061
2023-05-02T06:38:01.067Z,92.1480
2023-05-02T06:39:01.676Z,92.1802
2023-05-02T06:40:03.288Z,92.4824
2023-05-02T06:41:04.238Z,92.1172
2023-05-02T06:42:04.521Z,91.9529
2023-05-02T06:43:05.403Z,92.3036
2023-05-02T06:44:06.067Z,92.4121
2023-05-02T06:45:06.750Z,91.9606
2023-05-02T06:46:07.472Z,91.8196
2023-05-02T06:47:08.174Z,91.8755
2023-05-02T06:48:08.476Z,90.7400
2023-05-02T06:49:09.323Z,90.2425
2023-05-02T06:50:10.527Z,90.1426
2023-05-02T06:51:11.270Z,90.1153
2023-05-02T06:52:12.053Z,89.7060
2023-05-02T06:53:12.657Z,88.7873
2023-05-02T06:54:13.645Z,88.8486
2023-05-02T06:55:14.383Z,89.3168
2023-05-02T06:56:15.016Z,88.8620
2023-05-02T06:57:15.782Z,88.3689
2023-05-02T06:58:16.264Z,88.1505
2023-05-02T06:59:16.965Z,88.3017
2023-05-02T07:00:17.871Z,89.1522
2023-05-02T07:01:18.953Z,89.1658
2023-05-02T07:02:19.571Z,89.3541
2023-05-02T07:03:20.679Z,89.1674
2023-05-02T07:04:21.361Z,89.0620
2023-05-02T07:05:22.068Z,89.2094
2023-05-02T07:06:22.698Z,89.2946
2023-05-02T07:07:23.315Z,88.3039
2023-05-02T07:08:23.891Z,88.8391
2023-05-02T07:09:24.390Z,89.0536
2023-05-02T07:10:25.710Z,88.6710
2023-05-02T07:11:26.374Z,87.2879
2023-05-02T07:12:27.556Z,87.2982
2023-05-02T07:13:28.502Z,87.9609
2023-05-02T07:14:29.056Z,87.8734
2023-05-02T07:15:29.466Z,87.4770
2023-05-02T07:16:30.428Z,87.6522
2023-05-02T07:17:31.278Z,87.6669
2023-05-02T07:18:32.279Z,87.7095
2023-05-02T07:19:32.899Z,88.3167
2023-05-02T07:20:33.948Z,88.9168
2023-05-02T07:21:34.629Z,88.4600
2023-05-02T07:22:35.273Z,88.7205
2023-05-02T07:23:35.706Z,89.1058
2023-05-02T07:24:36.393Z,88.8301
2023-05-02T07:25:37.238Z,88.5139
2023-05-02T07:26:37.998Z,88.5044
2023-05-02T07:27:38.576Z,87.9394
2023-05-02T07:28:39.195Z,87.2855
2023-05-02T07:29:39.896Z,88.1149
2023-05-02T07:30:40.543Z,87.9599
2023-05-02T07:31:41.119Z,87.7966
2023-05-02T07:32:42.016Z,87.0397
2023-05-02T07:33:42.967Z,86.4216
2023-05-02T07:34:43.610Z,87.5873
2023-05-02T07:35:44.261Z,87.4618
2023-05-02T07:36:44.616Z,87.4836
2023-05-02T07:37:45.219Z,87.3381
2023-05-02T07:38:45.806Z,87.7018
2023-05-02T07:39:46.246Z,87.9339
2023-05-02T07:40:46.890Z,87.7269
2023-05-02T07:41:47.482Z,86.7884
2023-05-02T07:42:47.985Z,86.9887
2023-05-02T07:43:48.710Z,87.4420
2023-05-02T07:44:49.178Z,87.4157
2023-05-02T07:45:50.150Z,86.8605
2023-05-02T07:46:50.276Z,86.8962
2023-05-02T07:47:50.659Z,87.2485
2023-05-02T07:48:51.588Z,86.8812
2023-05-02T07:49:52.330Z,87.0604
2023-05-02T07:50:52.535Z,86.7713
2023-05-02T07:51:53.265Z,87.1075
2023-05-02T07:52:53.812Z,87.5433
2023-05-02T07:53:54.225Z,87.3556
2023-05-02T07:54:54.900Z,87.9618
2023-05-02T07:55:55.296Z,87.4696
2023-05-02T07:56:55.821Z,87.9030
2023-05-02T07:57:56.472Z,86.8063
2023-05-02T07:58:56.895Z,87.0976
2023-05-02T07:59:57.693Z,86.5379
2023-05-02T08:00:58.092Z,86.3558
2023-05-02T08:01:58.684Z,86.3920
2023-05-02T08:02:59.985Z,86.2967
2023-05-02T08:04:00.656Z,86.9942
2023-05-02T08:05:01.479Z,86.1959
2023-05-02T08:06:01.616Z,87.1441
2023-05-02T08:07:02.450Z,88.2395
2023-05-02T08:08:03.256Z,87.5118
2023-05-02T08:09:03.702Z,86.1613
2023-05-02T08:10:04.557Z,84.3453
2023-05-02T08:11:04.433Z,83.8917
2023-05-02T08:12:05.369Z,84.8667
2023-05-02T08:13:06.111Z,85.0362
2023-05-02T08:14:06.858Z,85.3806
2023-05-02T08:15:07.342Z,85.5555
2023-05-02T08:16:08.426Z,85.1523
2023-05-02T08:17:08.751Z,84.9664
2023-05-02T08:18:09.497Z,84.9386
2023-05-02T08:19:10.342Z,84.8239
2023-05-02T08:20:10.403Z,84.7128
2023-05-02T08:21:11.092Z,84.3695
2023-05-02T08:22:12.040Z,84.7061
2023-05-02T08:23:12.642Z,84.6143
2023-05-02T08:24:14.329Z,83.7306
2023-05-02T08:25:15.072Z,83.5554
2023-05-02T08:26:15.731Z,84.2391
2023-05-02T08:27:16.498Z,84.1523
2023-05-02T08:28:17.299Z,82.8428
2023-05-02T08:29:17.870Z,83.3658
2023-05-02T08:30:18.828Z,82.5225
2023-05-02T08:31:19.667Z,82.5509
2023-05-02T08:32:20.872Z,83.4664
2023-05-02T08:33:21.947Z,82.9042
2023-05-02T08:34:22.707Z,82.5493
2023-05-02T08:35:23.324Z,82.8015
2023-05-02T08:36:24.253Z,83.0081
2023-05-02T08:37:24.656Z,82.5993
2023-05-02T08:38:25.266Z,81.9355
2023-05-02T08:39:26.007Z,82.4751
2023-05-02T08:40:38.199Z,83.7104
2023-05-02T08:41:27.210Z,82.1611
2023-05-02T08:42:27.618Z,81.0924
2023-05-02T08:43:28.279Z,80.9811
2023-05-02T08:44:29.000Z,81.1102
2023-05-02T08:45:30.035Z,79.9380
2023-05-02T08:46:31.133Z,80.5347
2023-05-02T08:47:32.110Z,79.9072
2023-05-02T08:48:32.182Z,79.6007
2023-05-02T08:49:32.692Z,79.3334
2023-05-02T08:50:33.390Z,78.4802
2023-05-02T08:51:33.481Z,77.9868
2023-05-02T08:52:34.016Z,78.2143
2023-05-02T08:53:34.749Z,78.2899
2023-05-02T08:54:35.250Z,78.6154
2023-05-02T08:55:35.915Z,77.9872
2023-05-02T08:56:36.837Z,77.9966
2023-05-02T08:57:37.366Z,78.1036
2023-05-02T08:58:38.020Z,77.8478
2023-05-02T08:59:39.189Z,77.4874
2023-05-02T09:00:39.736Z,77.5447
2023-05-02T09:01:40.886Z,76.7384
2023-05-02T09:02:41.629Z,76.8089
2023-05-02T09:03:42.385Z,75.4890
2023-05-02T09:04:43.418Z,75.1401
2023-05-02T09:05:43.375Z,75.3360
2023-05-02T09:06:44.172Z,76.2841
2023-05-02T09:07:44.817Z,74.0949
2023-05-02T09:08:45.266Z,72.2136
2023-05-02T09:09:45.840Z,72.9595
2023-05-02T09:10:46.480Z,72.9316
2023-05-02T09:11:46.979Z,71.1564
2023-05-02T09:12:47.826Z,71.3618
2023-05-02T09:13:48.353Z,71.1296
2023-05-02T09:14:49.065Z,70.3968
2023-05-02T09:15:49.843Z,70.3000
2023-05-02T09:16:50.631Z,70.7048
2023-05-02T09:17:51.684Z,70.5898
2023-05-02T09:18:52.381Z,71.3823
2023-05-02T09:19:52.977Z,73.6099
2023-05-02T09:20:53.634Z,74.9030
2023-05-02T09:21:54.588Z,74.3467
2023-05-02T09:22:55.200Z,73.0851
2023-05-02T09:23:55.750Z,71.3029
2023-05-02T09:24:56.271Z,71.8585
2023-05-02T09:25:57.628Z,72.3856
2023-05-02T09:26:58.941Z,72.0215
2023-05-02T09:27:59.714Z,71.3652
2023-05-02T09:29:00.481Z,70.2740
2023-05-02T09:30:01.391Z,70.9192
2023-05-02T09:31:02.439Z,70.2597
2023-05-02T09:32:03.750Z,71.3785
2023-05-02T09:33:04.867Z,69.5994
2023-05-02T09:34:05.309Z,67.9738
2023-05-02T09:35:06.225Z,69.4609
2023-05-02T09:36:06.741Z,68.7939
2023-05-02T09:37:07.391Z,69.6652
2023-05-02T09:38:08.093Z,69.0932
2023-05-02T09:39:09.015Z,69.0765
2023-05-02T09:40:09.610Z,67.6123
2023-05-02T09:41:10.418Z,66.0572
2023-05-02T09:42:10.995Z,66.7621
2023-05-02T09:43:11.687Z,68.1012
2023-05-02T09:44:12.276Z,69.9363
2023-05-02T09:45:13.481Z,70.5737
2023-05-02T09:46:14.335Z,71.0394
2023-05-02T09:47:15.536Z,70.9749
2023-05-02T09:48:16.429Z,70.2501
2023-05-02T09:49:17.314Z,70.3543
2023-05-02T09:50:18.118Z,71.6609
2023-05-02T09:51:18.847Z,72.9520
2023-05-02T09:52:19.646Z,72.0652
2023-05-02T09:53:20.155Z,72.6884
2023-05-02T09:54:20.798Z,71.4926
2023-05-02T09:55:21.489Z,71.5580
2023-05-02T09:56:23.298Z,72.0629
2023-05-02T09:57:22.866Z,71.2917
2023-05-02T09:58:23.352Z,70.7301
2023-05-02T09:59:24.042Z,70.7107
2023-05-02T10:00:24.768Z,71.0671
2023-05-02T10:01:25.459Z,70.4816
2023-05-02T10:02:25.965Z,68.8567
2023-05-02T10:03:26.973Z,70.8738
2023-05-02T10:04:28.260Z,70.4637
2023-05-02T10:05:30.176Z,69.4766
2023-05-02T10:06:29.653Z,67.3170
2023-05-02T10:07:30.756Z,67.6379
2023-05-02T10:08:31.706Z,68.6356
2023-05-02T10:09:31.768Z,69.7043
2023-05-02T10:10:32.355Z,69.4520
2023-05-02T10:11:33.368Z,68.9123
2023-05-02T10:12:33.992Z,69.0836
2023-05-02T10:13:34.760Z,69.0031
2023-05-02T10:14:37.191Z,65.9782
2023-05-02T10:15:37.807Z,64.5040
2023-05-02T10:16:39.002Z,65.0468
2023-05-02T10:17:39.847Z,64.8000
2023-05-02T10:18:40.983Z,66.0780
2023-05-02T10:19:41.755Z,67.4955
2023-05-02T10:20:42.421Z,66.4537
2023-05-02T10:21:42.948Z,65.0272
2023-05-02T10:22:43.742Z,64.9077
2023-05-02T10:23:44.374Z,64.6932
2023-05-02T10:24:45.218Z,64.5828
2023-05-02T10:25:45.895Z,64.7207
2023-05-02T10:26:46.455Z,65.0896
2023-05-02T10:27:47.171Z,66.8377
2023-05-02T10:28:48.090Z,67.4324
2023-05-02T10:29:48.794Z,67.6990
2023-05-02T10:30:49.546Z,66.3440
2023-05-02T10:31:50.134Z,66.7949
2023-05-02T10:32:51.159Z,67.0693
2023-05-02T10:33:52.168Z,65.5368
2023-05-02T10:34:52.678Z,65.2136
2023-05-02T10:35:53.326Z,65.8912
2023-05-02T10:36:54.011Z,67.1619
2023-05-02T10:39:04.223Z,67.4655
2023-05-02T10:40:04.851Z,66.6463
2023-05-02T10:41:05.393Z,66.1581
2023-05-02T10:42:06.068Z,66.5445
2023-05-02T10:43:06.707Z,67.5712
2023-05-02T10:44:07.271Z,68.2803
2023-05-02T10:45:07.994Z,66.9203
2023-05-02T10:46:08.557Z,67.8293
2023-05-02T10:47:09.011Z,68.5885
2023-05-02T10:48:09.970Z,70.0594
2023-05-02T10:49:10.492Z,69.2128
2023-05-02T10:50:11.340Z,68.7729
2023-05-02T10:52:11.720Z,69.0099
2023-05-02T10:53:12.339Z,68.9416
2023-05-02T10:54:12.735Z,68.9385
2023-05-02T10:55:13.482Z,69.5548
2023-05-02T10:56:14.205Z,70.1800
2023-05-02T10:57:14.716Z,68.6437
2023-05-02T10:58:15.662Z,68.6208
2023-05-02T10:59:16.472Z,69.2886
2023-05-02T11:00:16.934Z,68.1217
2023-05-02T11:01:17.922Z,68.3143
2023-05-02T11:02:18.752Z,69.5430
2023-05-02T11:03:19.088Z,69.0248
2023-05-02T11:04:19.846Z,68.8459
2023-05-02T11:05:21.120Z,67.5790
2023-05-02T11:06:21.934Z,68.0509
2023-05-02T11:07:23.251Z,67.3750
2023-05-02T11:08:24.325Z,69.0043
2023-05-02T11:09:24.859Z,67.3575
2023-05-02T11:10:25.637Z,68.5679
2023-05-02T11:11:26.048Z,69.0822
2023-05-02T11:12:26.749Z,68.1938
2023-05-02T11:13:27.149Z,68.1210
2023-05-02T11:14:27.760Z,68.9888
2023-05-02T11:15:28.475Z,67.8466
2023-05-02T11:16:29.153Z,68.7216
2023-05-02T11:17:30.108Z,69.1628
2023-05-02T11:18:31.073Z,66.7719
2023-05-02T11:19:31.752Z,66.8840
2023-05-02T11:20:32.519Z,67.9026
2023-05-02T11:21:33.030Z,66.9485
2023-05-02T11:22:33.708Z,66.5899
2023-05-02T11:23:34.393Z,70.1046
2023-05-02T11:24:34.957Z,66.7710
2023-05-02T11:25:35.538Z,66.4491
2023-05-02T11:26:36.148Z,67.0185
2023-05-02T11:27:36.588Z,67.1222
2023-05-02T11:28:37.398Z,68.0168
2023-05-02T11:29:37.886Z,67.6352
2023-05-02T11:30:38.450Z,67.5550
2023-05-02T11:31:39.638Z,67.6026
2023-05-02T11:32:39.660Z,66.5412
2023-05-02T11:33:40.731Z,65.7168
2023-05-02T11:34:41.420Z,67.0891
2023-05-02T11:35:41.637Z,68.1181
2023-05-02T11:36:42.320Z,66.1023
2023-05-02T11:37:42.833Z,65.2995
2023-05-02T11:38:43.406Z,65.8814
2023-05-02T11:39:44.260Z,60.8617
2023-05-02T11:40:44.769Z,60.4461
2023-05-02T11:41:45.464Z,61.5966
2023-05-02T11:42:46.088Z,62.9549
2023-05-02T11:43:46.163Z,62.7512
2023-05-02T11:44:46.813Z,63.3035
2023-05-02T11:45:47.322Z,61.4276
2023-05-02T11:46:48.053Z,63.1599
2023-05-02T11:47:48.845Z,62.4322
2023-05-02T11:48:49.622Z,59.1850
2023-05-02T11:49:50.589Z,54.9150
2023-05-02T11:50:52.612Z,53.1851
2023-05-02T11:51:53.015Z,53.7684
2023-05-02T11:52:53.658Z,55.5691
2023-05-02T11:53:54.409Z,55.2132
2023-05-02T11:54:54.876Z,53.5188
2023-05-02T11:55:56.152Z,52.7830
2023-05-02T11:56:56.600Z,55.9580
2023-05-02T11:57:57.195Z,55.2444
2023-05-02T11:58:57.300Z,54.6429
2023-05-02T11:59:58.129Z,53.7557
2023-05-02T12:00:59.116Z,53.4686
2023-05-02T12:01:59.737Z,52.4880
2023-05-02T12:03:00.751Z,56.6671
2023-05-02T12:04:01.620Z,56.1739
2023-05-02T12:05:03.217Z,58.5701
2023-05-02T12:06:03.306Z,57.8582
2023-05-02T12:07:04.004Z,54.6850
2023-05-02T12:08:05.064Z,55.5490
2023-05-02T12:09:05.496Z,56.2249
2023-05-02T12:10:06.173Z,53.2028
2023-05-02T12:11:06.605Z,50.0910
2023-05-02T12:12:07.259Z,48.9109
2023-05-02T12:13:08.906Z,48.9413
2023-05-02T12:14:08.104Z,47.5737
2023-05-02T12:15:09.395Z,50.0338
2023-05-02T12:16:10.453Z,47.8183
2023-05-02T12:17:11.253Z,45.7027
2023-05-02T12:18:12.520Z,45.3035
2023-05-02T12:19:12.853Z,47.9708
2023-05-02T12:20:13.437Z,48.5090
2023-05-02T12:21:14.137Z,51.4586
2023-05-02T12:22:14.759Z,53.5948
2023-05-02T12:23:15.410Z,54.4333
2023-05-02T12:24:16.229Z,55.4807
2023-05-02T12:25:16.775Z,59.8060
2023-05-02T12:26:16.814Z,60.1577
2023-05-02T12:27:16.995Z,58.8742
2023-05-02T12:28:17.617Z,59.8760
2023-05-02T12:29:18.430Z,64.0604
2023-05-02T12:30:19.143Z,65.1689
2023-05-02T12:31:20.008Z,66.7461
2023-05-02T12:32:20.919Z,68.3288
2023-05-02T12:33:21.740Z,69.2141
2023-05-02T12:34:22.563Z,70.4441
2023-05-02T12:35:23.318Z,71.3678
2023-05-02T12:36:23.265Z,71.7976
2023-05-02T12:37:23.969Z,71.9923
2023-05-02T12:38:25.134Z,72.8552
2023-05-02T12:39:25.930Z,73.2695
2023-05-02T12:40:26.429Z,73.8232
2023-05-02T12:41:27.132Z,74.7805
2023-05-02T12:42:27.931Z,74.7133
2023-05-02T12:43:28.418Z,75.2355
2023-05-02T12:44:28.540Z,76.1686
2023-05-02T12:45:29.160Z,76.3219
2023-05-02T12:46:30.057Z,76.3626
2023-05-02T12:47:31.380Z,76.1706
2023-05-02T12:48:32.144Z,76.1327
2023-05-02T12:49:32.922Z,77.0828
2023-05-02T12:50:34.039Z,77.9858
2023-05-02T12:51:34.861Z,79.2992
2023-05-02T12:52:35.718Z,80.8207
2023-05-02T12:53:36.286Z,81.1697
2023-05-02T12:54:36.943Z,81.1307
2023-05-02T12:55:37.676Z,81.0618
2023-05-02T12:56:38.301Z,83.5348
2023-05-02T12:57:39.080Z,87.0405
2023-05-02T12:58:39.894Z,89.1896
2023-05-02T12:59:40.347Z,91.1759
2023-05-02T13:00:41.194Z,91.6608
2023-05-02T13:01:42.586Z,91.9507
2023-05-02T13:02:43.472Z,92.5022
2023-05-02T13:03:43.930Z,92.8409
2023-05-02T13:04:45.185Z,92.6542